Time;durP1;ratioP1;P1;durP2;ratioP2;P2;SDS_P1;SDS_P2;PMS_P1;PMS_P2;Temp;Humidity;BMP_temperature;BMP_pressure;BME280_temperature;BME280_humidity;BME280_pressure;Samples;Min_cycle;Max_cycle;Signal;HPM_P1;HPM_P2
2023/04/26 00:00:10;;;;;;;0.55;0.55;;;;;;;10.18;63.56;99044.81;5074920;28;20060;-65
2023/04/26 00:02:40;;;;;;;0.25;0.25;;;;;;;10.18;63.45;99044.81;5074927;28;20486;-66
2023/04/26 00:05:09;;;;;;;0.45;0.45;;;;;;;10.15;63.01;99042.28;5074756;28;20040;-65
2023/04/26 00:07:39;;;;;;;0.40;0.40;;;;;;;10.16;62.99;99051.66;5074816;28;20069;-66
2023/04/26 00:10:11;;;;;;;0.40;0.40;;;;;;;10.11;63.28;99045.72;5074992;28;20490;-65
2023/04/26 00:12:41;;;;;;;0.60;0.60;;;;;;;10.16;63.06;99056.75;5074654;28;20040;-67
2023/04/26 00:15:10;;;;;;;0.30;0.30;;;;;;;10.12;62.82;99062.75;5074665;28;20494;-65
2023/04/26 00:17:39;;;;;;;0.57;0.57;;;;;;;10.13;62.60;99072.06;5074461;28;20135;-66
2023/04/26 00:20:10;;;;;;;0.32;0.32;;;;;;;10.13;62.70;99077.16;5074542;28;20090;-66
2023/04/26 00:22:39;;;;;;;0.38;0.38;;;;;;;10.10;62.81;99072.09;5074812;28;20041;-66
2023/04/26 00:25:11;;;;;;;0.63;0.63;;;;;;;10.09;62.75;99065.28;5074897;28;20037;-65
2023/04/26 00:27:40;;;;;;;0.50;0.47;;;;;;;10.09;62.49;99075.47;5074316;28;20050;-65
2023/04/26 00:30:10;;;;;;;0.50;0.50;;;;;;;10.05;62.40;99079.75;5056555;28;20052;-65
2023/04/26 00:32:39;;;;;;;0.55;0.55;;;;;;;10.01;62.53;99077.25;5074836;28;20490;-65
2023/04/26 00:35:09;;;;;;;1.57;1.47;;;;;;;9.98;62.53;99077.28;5074173;28;20044;-65
2023/04/26 00:37:37;;;;;;;;;;;;;;;9.93;62.49;99077.28;5074715;28;20308;-66
2023/04/26 00:40:07;;;;;;;0.90;0.77;;;;;;;9.88;62.80;99073.97;5074132;28;19994;-66
2023/04/26 00:42:38;;;;;;;4.25;1.35;;;;;;;9.88;62.68;99086.72;5056609;28;20572;-65
2023/04/26 00:45:09;;;;;;;0.30;0.30;;;;;;;9.84;62.93;99073.97;5056269;28;20059;-65
2023/04/26 00:47:38;;;;;;;0.40;0.40;;;;;;;9.80;62.52;99077.41;5056404;28;20131;-64
2023/04/26 00:50:09;;;;;;;0.65;0.65;;;;;;;9.81;62.21;99066.38;5073642;28;20052;-64
2023/04/26 00:52:39;;;;;;;4.70;1.15;;;;;;;9.75;62.84;99079.16;5074225;28;20135;-64
2023/04/26 00:55:09;;;;;;;0.75;0.75;;;;;;;9.71;62.61;99082.59;5073896;28;20090;-64
2023/04/26 00:57:40;;;;;;;0.68;0.68;;;;;;;9.61;63.13;99091.13;5056415;28;20437;-64
2023/04/26 01:00:10;;;;;;;0.88;0.85;;;;;;;9.52;63.16;99093.75;5073754;28;20055;-64
2023/04/26 01:02:40;;;;;;;0.43;0.43;;;;;;;9.48;64.05;99099.72;5055946;28;20051;-64
2023/04/26 01:05:09;;;;;;;0.60;0.60;;;;;;;9.43;64.03;99092.94;5073738;28;20063;-64
2023/04/26 01:07:38;;;;;;;0.90;0.85;;;;;;;9.43;63.76;99098.03;5073970;28;20131;-64
2023/04/26 01:10:09;;;;;;;0.40;0.40;;;;;;;9.39;64.04;99098.91;5055808;28;20041;-64
2023/04/26 01:12:40;;;;;;;0.40;0.40;;;;;;;9.36;63.96;99105.69;5073663;28;20056;-64
2023/04/26 01:15:10;;;;;;;0.70;0.70;;;;;;;9.29;64.45;99107.44;5073887;28;20386;-63
2023/04/26 01:17:39;;;;;;;2.65;1.95;;;;;;;9.25;64.25;99110.88;5073929;28;20154;-64
2023/04/26 01:20:10;;;;;;;0.70;0.70;;;;;;;9.20;64.51;99115.13;5073441;28;20044;-64
2023/04/26 01:22:41;;;;;;;0.60;0.60;;;;;;;9.15;64.88;99119.41;5073555;28;20490;-64
2023/04/26 01:25:12;;;;;;;0.70;0.70;;;;;;;9.16;64.71;99117.69;5055768;28;20070;-64
2023/04/26 01:27:42;;;;;;;0.68;0.68;;;;;;;9.14;64.17;99115.16;5055653;28;20048;-64
2023/04/26 01:30:11;;;;;;;0.60;0.60;;;;;;;9.13;64.26;99128.75;5055458;28;20045;-65
2023/04/26 01:32:40;;;;;;;0.30;0.30;;;;;;;9.11;65.09;99125.38;5073724;28;20094;-64
2023/04/26 01:35:09;;;;;;;0.52;0.52;;;;;;;9.09;65.16;99132.16;5055912;28;20037;-64
2023/04/26 01:37:38;;;;;;;1.75;1.65;;;;;;;9.02;64.73;99130.47;5073688;28;20094;-64
2023/04/26 01:40:10;;;;;;;0.50;0.50;;;;;;;8.96;65.12;99140.69;5073361;28;20053;-65
2023/04/26 01:42:40;;;;;;;1.23;0.90;;;;;;;8.99;63.59;99135.59;5055846;28;20052;-64
2023/04/26 01:45:09;;;;;;;0.50;0.50;;;;;;;9.00;63.54;99136.44;5073309;28;20041;-64
2023/04/26 01:47:49;;;;;;;0.40;0.40;;;;;;;9.03;63.93;99137.25;5055708;28;20159;-63
2023/04/26 01:50:18;;;;;;;0.53;0.53;;;;;;;9.05;63.29;99145.72;5051589;28;20065;-64
2023/04/26 01:52:47;;;;;;;0.73;0.73;;;;;;;9.01;63.11;99133.88;5053585;28;20507;-64
2023/04/26 01:55:18;;;;;;;0.50;0.50;;;;;;;8.93;63.23;99135.59;5052374;28;20403;-64
2023/04/26 01:57:46;;;;;;;0.40;0.40;;;;;;;8.94;63.11;99137.28;5052095;28;20049;-64
2023/04/26 02:00:16;;;;;;;0.30;0.30;;;;;;;8.96;63.59;99143.22;5052010;28;20041;-64
2023/04/26 02:02:44;;;;;;;1.58;0.65;;;;;;;8.89;63.54;99139.00;5053091;28;20041;-64
2023/04/26 02:05:13;;;;;;;0.75;0.65;;;;;;;8.85;63.19;99147.50;5053145;28;20038;-64
2023/04/26 02:07:42;;;;;;;0.67;0.67;;;;;;;8.79;63.63;99147.50;5053137;28;20543;-64
2023/04/26 02:10:11;;;;;;;0.40;0.40;;;;;;;8.72;63.45;99153.47;5056544;28;20123;-64
2023/04/26 02:12:41;;;;;;;0.30;0.30;;;;;;;8.74;63.21;99159.38;5057247;28;20033;-64
2023/04/26 02:15:11;;;;;;;0.30;0.30;;;;;;;8.71;63.93;99159.38;5057312;28;20088;-64
2023/04/26 02:17:41;;;;;;;2.38;1.48;;;;;;;8.69;63.34;99161.09;5055750;28;20041;-64
2023/04/26 02:20:11;;;;;;;0.30;0.30;;;;;;;8.61;63.54;99156.00;5056904;28;20044;-64
2023/04/26 02:22:40;;;;;;;0.32;0.32;;;;;;;8.60;63.43;99163.66;5055816;28;20080;-64
2023/04/26 02:25:10;;;;;;;0.95;0.95;;;;;;;8.57;63.85;99167.03;5057005;28;20068;-64
2023/04/26 02:27:39;;;;;;;0.40;0.40;;;;;;;8.49;64.53;99162.81;5056724;28;20522;-64
2023/04/26 02:30:10;;;;;;;0.40;0.40;;;;;;;8.48;63.96;99154.34;5056940;28;20048;-64
2023/04/26 02:32:41;;;;;;;0.30;0.30;;;;;;;8.45;64.19;99154.34;5056544;28;20052;-64
2023/04/26 02:35:10;;;;;;;0.50;0.50;;;;;;;8.42;63.19;99156.06;5055379;28;20040;-64
2023/04/26 02:37:39;;;;;;;0.43;0.43;;;;;;;8.30;63.81;99163.69;5056891;28;20407;-64
2023/04/26 02:40:12;;;;;;;0.20;0.20;;;;;;;8.16;64.28;99157.72;5055321;28;20293;-64
2023/04/26 02:42:41;;;;;;;0.75;0.68;;;;;;;8.02;64.86;99166.16;5056386;28;20057;-65
2023/04/26 02:45:11;;;;;;;1.05;1.00;;;;;;;7.88;65.06;99162.75;5056444;28;20098;-64
2023/04/26 02:47:40;;;;;;;1.08;1.05;;;;;;;7.72;65.84;99163.59;5055203;28;20056;-64
2023/04/26 02:50:10;;;;;;;0.30;0.30;;;;;;;7.68;66.29;99158.50;5054829;28;20132;-64
2023/04/26 02:52:39;;;;;;;0.65;0.47;;;;;;;7.69;65.84;99155.09;5055362;28;20402;-64
2023/04/26 02:55:09;;;;;;;0.40;0.40;;;;;;;7.50;66.06;99164.38;5056102;28;20069;-64
2023/04/26 02:57:37;;;;;;;;;;;;;;;7.36;66.36;99160.94;5055713;28;20029;-64
2023/04/26 03:00:10;;;;;;;1.73;0.80;;;;;;;7.35;66.13;99164.31;5054966;28;19927;-64
2023/04/26 03:02:41;;;;;;;4.22;1.45;;;;;;;7.38;66.14;99149.09;5056419;28;20060;-64
2023/04/26 03:05:10;;;;;;;0.40;0.40;;;;;;;7.32;65.97;99144.84;5056402;28;20052;-64
2023/04/26 03:07:39;;;;;;;1.13;0.90;;;;;;;7.39;65.76;99150.78;5054784;28;20102;-64
2023/04/26 03:10:08;;;;;;;0.40;0.40;;;;;;;7.40;65.06;99147.41;5054689;28;20124;-64
2023/04/26 03:12:39;;;;;;;0.77;0.77;;;;;;;7.41;64.53;99155.00;5056054;28;20049;-64
2023/04/26 03:15:09;;;;;;;0.70;0.70;;;;;;;7.44;64.38;99165.19;5055787;28;20124;-64
2023/04/26 03:17:42;;;;;;;1.05;1.05;;;;;;;7.52;63.75;99171.97;5054919;28;20099;-64
2023/04/26 03:20:13;;;;;;;0.30;0.30;;;;;;;7.60;63.29;99175.41;5055686;28;20068;-64
2023/04/26 03:22:42;;;;;;;;;;;;;;;7.67;61.89;99177.97;5054857;28;20120;-64
2023/04/26 03:25:12;;;;;;;1.33;1.23;;;;;;;7.71;61.64;99182.19;5054375;28;19966;-64
2023/04/26 03:27:41;;;;;;;0.60;0.60;;;;;;;7.76;61.68;99188.13;5054819;28;20357;-64
2023/04/26 03:30:10;;;;;;;0.43;0.43;;;;;;;7.77;60.93;99194.94;5055141;28;20075;-65
2023/04/26 03:32:42;;;;;;;0.77;0.77;;;;;;;7.72;61.52;99186.44;5055800;28;20457;-64
2023/04/26 03:35:11;;;;;;;3.47;1.60;;;;;;;7.77;61.24;99194.94;5055398;28;20053;-64
2023/04/26 03:37:39;;;;;;;0.83;0.83;;;;;;;7.82;61.43;99192.41;5054540;28;20049;-64
2023/04/26 03:40:13;;;;;;;1.38;1.27;;;;;;;7.81;60.85;99206.78;5055297;28;20056;-64
2023/04/26 03:42:41;;;;;;;1.40;1.08;;;;;;;7.76;60.99;99207.59;5054511;28;20075;-64
2023/04/26 03:45:11;;;;;;;1.88;1.27;;;;;;;7.76;61.18;99205.91;5055443;28;20076;-64
2023/04/26 03:47:40;;;;;;;10.93;2.75;;;;;;;7.69;61.30;99201.66;5054336;28;20068;-64
2023/04/26 03:50:11;;;;;;;0.57;0.57;;;;;;;7.67;61.14;99215.19;5063399;28;20056;-64
2023/04/26 03:52:40;;;;;;;0.30;0.30;;;;;;;7.61;61.17;99210.94;5075094;28;20041;-64
2023/04/26 03:55:10;;;;;;;0.40;0.40;;;;;;;7.61;61.94;99217.72;5057258;28;20056;-64
2023/04/26 03:57:40;;;;;;;1.00;1.00;;;;;;;7.66;61.43;99221.97;5057501;28;20552;-64
2023/04/26 04:00:10;;;;;;;0.70;0.70;;;;;;;7.68;61.10;99220.28;5057093;28;20044;-64
2023/04/26 04:02:43;;;;;;;0.88;0.88;;;;;;;7.71;61.38;99225.38;5075000;28;20124;-64
2023/04/26 04:05:23;;;;;;;29.60;1.20;;;;;;;7.80;61.68;99234.69;5074766;28;20052;-65
2023/04/26 04:07:52;;;;;;;0.52;0.52;;;;;;;7.84;61.36;99237.28;5074757;28;20106;-65
2023/04/26 04:10:22;;;;;;;;;;;;;;;7.87;61.04;99241.53;5075149;28;20486;-64
2023/04/26 04:12:52;;;;;;;0.65;0.65;;;;;;;7.87;60.89;99242.34;5057200;28;20329;-64
2023/04/26 04:15:21;;;;;;;;;;;;;;;7.89;60.84;99245.75;5057467;28;20048;-65
2023/04/26 04:17:50;;;;;;;0.68;0.68;;;;;;;7.93;60.72;99242.38;5057094;28;19920;-66
2023/04/26 04:20:20;;;;;;;0.30;0.30;;;;;;;8.07;60.21;99250.88;5056978;28;20449;-66
2023/04/26 04:22:51;;;;;;;0.40;0.40;;;;;;;8.13;61.07;99255.16;5056673;28;20048;-66
2023/04/26 04:25:21;;;;;;;0.55;0.55;;;;;;;8.18;61.32;99257.69;5056916;28;20049;-65
2023/04/26 04:27:50;;;;;;;1.17;0.93;;;;;;;8.20;61.06;99261.06;5056866;28;20075;-66
2023/04/26 04:30:20;;;;;;;0.70;0.70;;;;;;;8.24;61.34;99267.84;5074259;28;20128;-66
2023/04/26 04:32:49;;;;;;;0.30;0.30;;;;;;;8.23;61.50;99261.91;5055974;28;20044;-66
2023/04/26 04:35:18;;;;;;;0.30;0.30;;;;;;;8.28;61.82;99272.16;5056463;28;20041;-66
2023/04/26 04:37:50;;;;;;;1.63;1.52;;;;;;;8.33;61.43;99278.06;5056637;28;20044;-65
2023/04/26 04:40:19;;;;;;;3.70;0.82;;;;;;;8.40;61.71;99270.44;5056917;28;20094;-66
2023/04/26 04:42:50;;;;;;;0.60;0.60;;;;;;;8.53;61.39;99276.41;5074022;28;20044;-66
2023/04/26 04:45:21;;;;;;;0.77;0.77;;;;;;;8.58;61.58;99277.25;5074029;28;20045;-65
2023/04/26 04:47:53;;;;;;;5.10;1.40;;;;;;;8.61;60.94;99284.91;5073937;28;20067;-65
2023/04/26 04:50:22;;;;;;;0.60;0.60;;;;;;;8.64;60.86;99280.66;5036082;28;20526;-66
2023/04/26 04:52:52;;;;;;;0.82;0.82;;;;;;;8.69;61.61;99278.97;5053043;28;20064;-66
2023/04/26 04:55:22;;;;;;;0.60;0.60;;;;;;;8.86;60.32;99281.50;5053055;28;20067;-66
2023/04/26 04:57:52;;;;;;;0.40;0.40;;;;;;;8.84;61.41;99283.19;5054105;28;20076;-66
2023/04/26 05:00:22;;;;;;;0.47;0.47;;;;;;;8.94;61.35;99296.78;5052900;28;20439;-65
2023/04/26 05:02:57;;;;;;;0.52;0.52;;;;;;;9.04;60.87;99291.69;5036247;28;20072;-66
2023/04/26 05:05:28;;;;;;;1.38;1.27;;;;;;;9.07;60.58;99296.75;5053792;28;20048;-66
2023/04/26 05:07:58;;;;;;;0.32;0.32;;;;;;;9.22;60.66;99294.19;5052469;28;20048;-65
2023/04/26 05:10:27;;;;;;;0.63;0.63;;;;;;;9.31;61.05;99300.94;5052491;28;20075;-66
2023/04/26 05:12:56;;;;;;;0.40;0.40;;;;;;;9.39;60.88;99302.66;5052470;28;20041;-66
2023/04/26 05:15:26;;;;;;;0.30;0.30;;;;;;;9.44;61.27;99311.13;5053592;28;20596;-66
2023/04/26 05:17:56;;;;;;;0.50;0.50;;;;;;;9.58;60.79;99306.00;5052585;28;20041;-66
2023/04/26 05:20:26;;;;;;;0.80;0.80;;;;;;;9.64;59.64;99300.03;5052517;28;20490;-66
2023/04/26 05:22:56;;;;;;;0.40;0.40;;;;;;;9.81;59.71;99301.66;5053677;28;20055;-65
2023/04/26 05:25:26;;;;;;;0.50;0.50;;;;;;;9.84;59.02;99295.69;5052764;28;20103;-66
2023/04/26 05:28:05;;;;;;;0.70;0.70;;;;;;;10.06;57.95;99304.94;5053640;28;20325;-65
2023/04/26 05:30:39;;;;;;;0.50;0.50;;;;;;;10.08;57.37;99298.13;5053864;28;20073;-65
2023/04/26 05:33:21;;;;;;;0.50;0.50;;;;;;;10.03;57.88;99304.97;5053757;28;20406;-65
2023/04/26 05:36:09;;;;;;;0.40;0.40;;;;;;;10.11;57.83;99305.78;5053775;28;20483;-65
2023/04/26 05:38:38;;;;;;;0.75;0.75;;;;;;;10.19;57.24;99306.63;5053397;28;20045;-65
2023/04/26 05:41:08;;;;;;;0.90;0.85;;;;;;;10.31;57.20;99314.22;5052149;28;20491;-65
2023/04/26 05:43:37;;;;;;;0.50;0.50;;;;;;;10.49;56.64;99316.66;5053198;28;20073;-64
2023/04/26 05:46:06;;;;;;;;;;;;;;;10.54;56.58;99309.81;5058363;28;20466;-65
2023/04/26 05:48:36;;;;;;;0.50;0.50;;;;;;;10.64;56.55;99314.00;5057393;28;19947;-64
2023/04/26 05:51:05;;;;;;;0.70;0.70;;;;;;;10.81;56.60;99318.13;5056161;28;20048;-64
2023/04/26 05:53:35;;;;;;;1.13;1.02;;;;;;;11.00;56.01;99319.69;5056486;28;20278;-65
2023/04/26 05:56:05;;;;;;;0.57;0.57;;;;;;;11.13;55.24;99316.16;5057579;28;20053;-65
2023/04/26 05:58:38;;;;;;;0.40;0.40;;;;;;;11.16;54.23;99316.13;5056349;28;20123;-64
2023/04/26 06:01:07;;;;;;;0.63;0.60;;;;;;;11.17;53.41;99317.81;5056918;28;20045;-65
2023/04/26 06:03:37;;;;;;;1.58;1.48;;;;;;;11.17;53.10;99315.28;5055904;28;20051;-66
2023/04/26 06:06:06;;;;;;;;;;;;;;;11.26;53.27;99328.81;5056335;28;20491;-65
2023/04/26 06:08:38;;;;;;;1.10;1.05;;;;;;;11.42;53.33;99330.34;5057061;28;19982;-65
2023/04/26 06:11:07;;;;;;;4.90;1.40;;;;;;;11.48;52.69;99332.00;5055781;28;20047;-65
2023/04/26 06:13:36;;;;;;;0.43;0.43;;;;;;;11.68;52.23;99327.56;5056314;28;20514;-64
2023/04/26 06:16:08;;;;;;;0.80;0.80;;;;;;;11.71;51.79;99326.69;5057552;28;20064;-65
2023/04/26 06:18:37;;;;;;;0.90;0.90;;;;;;;11.61;50.82;99330.19;5055725;28;20045;-66
2023/04/26 06:21:07;;;;;;;0.85;0.85;;;;;;;11.52;50.23;99336.22;5057433;28;20049;-66
2023/04/26 06:23:37;;;;;;;0.68;0.68;;;;;;;11.53;50.23;99337.91;5056785;28;20557;-67
2023/04/26 06:26:06;;;;;;;0.40;0.40;;;;;;;11.73;50.06;99337.75;5056923;28;20555;-66
2023/04/26 06:28:34;;;;;;;0.47;0.47;;;;;;;11.78;49.44;99338.56;5055402;28;20132;-66
2023/04/26 06:31:03;;;;;;;6.23;1.20;;;;;;;11.76;49.77;99336.00;5055711;28;20170;-68
2023/04/26 06:33:34;;;;;;;2.95;1.70;;;;;;;11.69;49.29;99331.81;5056521;28;20318;-68
2023/04/26 06:36:02;;;;;;;1.40;1.30;;;;;;;11.73;49.76;99340.31;5055732;28;20049;-66
2023/04/26 06:38:31;;;;;;;0.50;0.50;;;;;;;11.73;48.98;99336.03;5055306;28;20107;-65
2023/04/26 06:41:00;;;;;;;0.50;0.50;;;;;;;11.77;49.17;99337.69;5055296;28;20495;-70
2023/04/26 06:43:29;;;;;;;1.13;1.02;;;;;;;11.75;49.48;99334.31;5055244;28;20124;-66
2023/04/26 06:46:02;;;;;;;0.50;0.50;;;;;;;12.03;49.50;99343.34;5057005;28;20051;-69
2023/04/26 06:48:31;;;;;;;1.10;1.05;;;;;;;11.95;48.41;99340.03;5056317;28;20053;-69
2023/04/26 06:51:06;;;;;;;0.57;0.57;;;;;;;11.87;49.07;99344.41;5070955;28;20044;-68
2023/04/26 06:53:36;;;;;;;0.30;0.30;;;;;;;12.01;48.68;99332.28;5076525;28;20048;-68
2023/04/26 06:56:05;;;;;;;2.13;1.13;;;;;;;12.12;48.37;99333.88;5075613;28;20139;-69
2023/04/26 06:58:34;;;;;;;0.95;0.75;;;;;;;12.06;47.95;99338.22;5076052;28;20090;-69
2023/04/26 07:01:02;;;;;;;0.68;0.68;;;;;;;12.21;47.80;99338.88;5076450;28;20094;-65
2023/04/26 07:03:31;;;;;;;0.98;0.98;;;;;;;12.35;47.75;99340.41;5076223;28;20131;-68
2023/04/26 07:06:03;;;;;;;3.25;1.15;;;;;;;12.37;47.55;99348.03;5076269;28;20095;-67
2023/04/26 07:08:32;;;;;;;2.25;1.08;;;;;;;12.54;47.77;99358.91;5075913;28;20044;-65
2023/04/26 07:11:01;;;;;;;0.50;0.50;;;;;;;12.65;47.31;99354.47;5075886;28;20044;-64
2023/04/26 07:13:30;;;;;;;1.95;0.50;;;;;;;12.75;46.69;99359.44;5076127;28;20036;-64
2023/04/26 07:15:59;;;;;;;1.02;0.93;;;;;;;12.47;46.39;99360.69;5076234;28;20043;-65
2023/04/26 07:18:27;;;;;;;0.60;0.60;;;;;;;12.35;46.42;99354.91;5075732;28;20086;-66
2023/04/26 07:20:56;;;;;;;0.50;0.50;;;;;;;12.19;46.38;99358.53;5075592;28;20520;-65
2023/04/26 07:23:26;;;;;;;0.52;0.52;;;;;;;12.26;47.11;99363.53;5075585;28;20135;-66
2023/04/26 07:25:55;;;;;;;1.02;1.00;;;;;;;12.38;47.51;99357.41;5075799;28;20068;-66
2023/04/26 07:28:25;;;;;;;4.78;1.30;;;;;;;12.25;47.74;99366.97;5075594;28;20072;-64
2023/04/26 07:30:54;;;;;;;0.50;0.50;;;;;;;12.18;48.09;99367.91;5075435;28;20051;-64
2023/04/26 07:33:22;;;;;;;0.50;0.50;;;;;;;12.40;47.68;99365.91;5075401;28;20514;-66
2023/04/26 07:35:55;;;;;;;2.60;1.55;;;;;;;12.60;47.14;99363.91;5075699;28;20049;-66
2023/04/26 07:38:26;;;;;;;0.75;0.75;;;;;;;12.73;46.86;99365.44;5075408;28;20075;-66
2023/04/26 07:40:55;;;;;;;0.40;0.40;;;;;;;12.77;45.99;99374.78;5075650;28;20040;-64
2023/04/26 07:43:24;;;;;;;;;;;;;;;12.78;45.54;99367.09;5075637;28;20049;-65
2023/04/26 07:45:53;;;;;;;0.50;0.50;;;;;;;12.69;45.65;99366.38;5075508;28;19920;-66
2023/04/26 07:48:22;;;;;;;0.60;0.60;;;;;;;12.77;45.50;99372.22;5075413;28;20081;-68
2023/04/26 07:50:50;;;;;;;0.60;0.60;;;;;;;12.59;45.11;99377.59;5080949;28;20048;-65
2023/04/26 07:53:19;;;;;;;0.50;0.50;;;;;;;12.72;45.03;99369.72;5081643;28;20289;-65
2023/04/26 07:55:50;;;;;;;0.28;0.28;;;;;;;12.84;45.27;99373.81;5080449;28;20556;-66
2023/04/26 07:58:20;;;;;;;0.50;0.50;;;;;;;13.18;45.91;99374.16;5082901;28;20040;-65
2023/04/26 08:00:49;;;;;;;0.55;0.55;;;;;;;13.20;44.96;99375.84;5066640;28;20101;-65
2023/04/26 08:03:18;;;;;;;0.40;0.40;;;;;;;13.25;44.21;99371.50;5094430;28;20084;-66
2023/04/26 08:05:47;;;;;;;0.55;0.55;;;;;;;13.15;43.47;99372.50;5094019;28;20123;-64
2023/04/26 08:08:17;;;;;;;0.52;0.50;;;;;;;13.31;43.67;99371.41;5095221;28;20089;-65
2023/04/26 08:10:46;;;;;;;0.50;0.50;;;;;;;13.63;43.86;99363.13;5071803;28;20494;-64
2023/04/26 08:13:16;;;;;;;0.63;0.63;;;;;;;14.03;43.39;99363.22;5085233;28;20036;-65
2023/04/26 08:15:45;;;;;;;0.50;0.50;;;;;;;14.33;42.52;99362.63;5087176;28;20044;-65
2023/04/26 08:18:14;;;;;;;0.50;0.50;;;;;;;14.53;42.14;99360.50;5095106;28;20382;-65
2023/04/26 08:20:43;;;;;;;0.70;0.70;;;;;;;14.45;41.38;99362.38;5094597;28;20036;-65
2023/04/26 08:23:13;;;;;;;1.60;0.93;;;;;;;13.99;40.32;99357.31;5094806;28;20048;-64
2023/04/26 08:25:42;;;;;;;2.60;1.35;;;;;;;13.75;40.52;99367.22;5094680;28;20052;-67
2023/04/26 08:28:13;;;;;;;0.55;0.55;;;;;;;13.75;40.64;99362.09;5094517;28;20054;-65
2023/04/26 08:30:43;;;;;;;0.52;0.52;;;;;;;14.11;41.25;99366.47;5094625;28;20048;-65
2023/04/26 08:33:12;;;;;;;0.50;0.50;;;;;;;14.34;42.23;99369.47;5094654;28;20048;-65
2023/04/26 08:35:41;;;;;;;0.63;0.57;;;;;;;14.20;41.89;99366.31;5094574;28;20495;-65
2023/04/26 08:38:10;;;;;;;0.57;0.57;;;;;;;14.11;41.23;99367.31;5094411;28;20032;-66
2023/04/26 08:40:41;;;;;;;1.40;0.95;;;;;;;14.22;40.66;99364.56;5094741;28;20079;-65
2023/04/26 08:43:11;;;;;;;0.50;0.50;;;;;;;14.52;41.35;99374.19;5094390;28;20044;-66
2023/04/26 08:45:41;;;;;;;0.60;0.60;;;;;;;14.88;41.08;99371.69;5094580;28;20394;-66
2023/04/26 08:48:14;;;;;;;0.70;0.63;;;;;;;15.15;39.44;99360.75;5094568;28;20109;-67
2023/04/26 08:50:45;;;;;;;0.85;0.85;;;;;;;15.07;39.70;99373.78;5093991;28;20134;-65
2023/04/26 08:53:16;;;;;;;0.80;0.47;;;;;;;15.07;39.46;99383.25;5094041;28;20040;-65
2023/04/26 08:55:48;;;;;;;0.47;0.47;;;;;;;14.80;39.61;99368.47;5094156;28;20044;-65
2023/04/26 08:58:18;;;;;;;0.88;0.82;;;;;;;14.53;39.56;99380.19;5094478;28;20089;-66
2023/04/26 09:00:47;;;;;;;0.60;0.60;;;;;;;14.13;40.08;99375.84;5094042;28;20044;-65
2023/04/26 09:03:17;;;;;;;1.48;0.90;;;;;;;13.70;40.71;99385.22;5094282;28;20136;-66
2023/04/26 09:05:47;;;;;;;0.45;0.45;;;;;;;13.56;41.35;99391.47;5093976;28;20044;-65
2023/04/26 09:08:17;;;;;;;0.50;0.50;;;;;;;13.30;41.26;99382.50;5094115;28;20436;-66
2023/04/26 09:10:46;;;;;;;0.30;0.30;;;;;;;13.26;41.91;99393.69;5093947;28;20325;-66
2023/04/26 09:13:15;;;;;;;0.43;0.43;;;;;;;13.44;42.20;99390.81;5076065;28;20032;-66
2023/04/26 09:15:44;;;;;;;0.55;0.55;;;;;;;13.75;42.15;99388.56;5093801;28;20036;-66
2023/04/26 09:18:22;;;;;;;0.77;0.77;;;;;;;13.70;41.59;99389.53;5093801;28;20548;-65
2023/04/26 09:21:04;;;;;;;0.60;0.60;;;;;;;13.54;41.49;99396.63;5093877;28;20114;-66
2023/04/26 09:23:34;;;;;;;0.55;0.55;;;;;;;13.56;40.67;99394.03;5094106;28;20078;-65
2023/04/26 09:26:17;;;;;;;0.50;0.50;;;;;;;13.57;39.96;99388.88;5094072;28;20048;-65
2023/04/26 09:28:46;;;;;;;0.57;0.57;;;;;;;13.90;39.42;99366.91;5093621;28;20079;-65
2023/04/26 09:31:39;;;;;;;0.63;0.63;;;;;;;13.84;39.50;99382.44;5093902;28;20127;-66
2023/04/26 09:34:10;;;;;;;0.60;0.60;;;;;;;13.71;40.40;99388.63;5093633;28;20570;-66
2023/04/26 09:36:51;;;;;;;2.20;1.30;;;;;;;13.59;40.56;99389.72;5093586;28;20048;-67
2023/04/26 09:39:34;;;;;;;0.55;0.55;;;;;;;13.41;41.20;99398.53;5093945;28;20044;-67
2023/04/26 09:42:04;;;;;;;0.30;0.30;;;;;;;13.25;41.29;99394.56;5093633;28;20068;-66
2023/04/26 09:44:32;;;;;;;;;;;;;;;13.13;42.06;99397.31;5094168;28;20048;-66
2023/04/26 09:47:04;;;;;;;0.30;0.30;;;;;;;13.07;42.51;99399.97;5093520;28;19920;-65
2023/04/26 09:49:45;;;;;;;1.42;1.33;;;;;;;12.98;42.34;99387.25;5093490;28;20048;-66
2023/04/26 09:52:15;;;;;;;0.75;0.73;;;;;;;12.99;41.76;99393.22;5093811;28;20064;-66
2023/04/26 09:54:46;;;;;;;0.43;0.43;;;;;;;13.02;41.43;99394.03;5093350;28;20052;-65
2023/04/26 09:57:17;;;;;;;0.60;0.60;;;;;;;13.25;41.50;99392.00;5093398;28;20048;-66
2023/04/26 09:59:47;;;;;;;0.50;0.50;;;;;;;13.41;41.68;99387.47;5093703;28;20048;-66
2023/04/26 10:02:20;;;;;;;0.60;0.60;;;;;;;13.43;41.19;99390.84;5093725;28;20078;-65
2023/04/26 10:04:53;;;;;;;0.40;0.40;;;;;;;13.41;41.28;99393.41;5093278;28;20062;-64
2023/04/26 10:07:23;;;;;;;0.63;0.60;;;;;;;13.41;40.68;99385.72;5093201;28;20048;-64
2023/04/26 10:09:53;;;;;;;2.20;1.92;;;;;;;13.30;39.97;99390.19;5093323;28;20060;-65
2023/04/26 10:12:23;;;;;;;1.10;1.00;;;;;;;13.31;40.27;99380.81;5093546;28;20074;-65
2023/04/26 10:14:52;;;;;;;0.40;0.40;;;;;;;13.06;38.30;99385.47;5093107;28;20036;-65
2023/04/26 10:17:21;;;;;;;0.40;0.40;;;;;;;13.03;38.07;99382.91;5093508;28;20048;-63
2023/04/26 10:19:55;;;;;;;0.40;0.40;;;;;;;12.92;38.32;99389.94;5093101;28;20051;-64
2023/04/26 10:22:28;;;;;;;0.40;0.40;;;;;;;12.84;38.89;99394.28;5093444;28;20044;-64
2023/04/26 10:24:57;;;;;;;0.50;0.50;;;;;;;12.78;38.76;99391.84;5093406;28;20044;-64
2023/04/26 10:27:48;;;;;;;0.50;0.50;;;;;;;12.82;38.77;99388.34;5093045;28;20094;-64
2023/04/26 10:30:17;;;;;;;4.68;0.95;;;;;;;12.79;38.31;99375.59;5094947;28;20044;-63
2023/04/26 10:32:57;;;;;;;;;;;;;;;12.93;38.74;99390.78;5097357;28;20147;-63
2023/04/26 10:35:29;;;;;;;0.40;0.40;;;;;;;12.99;38.50;99388.09;5096679;28;20011;-63
2023/04/26 10:38:14;;;;;;;0.88;0.60;;;;;;;13.37;38.81;99389.22;5097118;28;20055;-63
2023/04/26 10:40:45;;;;;;;0.40;0.40;;;;;;;13.55;38.18;99384.66;5095505;28;20083;-64
2023/04/26 10:43:27;;;;;;;0.40;0.40;;;;;;;13.61;37.85;99389.66;5096689;28;20497;-64
2023/04/26 10:45:56;;;;;;;0.40;0.40;;;;;;;13.60;37.24;99388.84;5097041;28;20104;-64
2023/04/26 10:48:31;;;;;;;0.87;0.87;;;;;;;13.62;38.19;99386.25;5096669;28;20490;-64
2023/04/26 10:51:12;;;;;;;1.23;1.02;;;;;;;13.51;38.22;99388.16;5096650;28;20478;-64
2023/04/26 10:53:59;;;;;;;0.43;0.43;;;;;;;13.42;38.59;99395.13;5096881;28;20040;-66
2023/04/26 10:56:49;;;;;;;0.47;0.47;;;;;;;13.30;38.04;99400.44;5096504;28;20047;-66
2023/04/26 10:59:22;;;;;;;0.40;0.40;;;;;;;13.30;38.01;99390.19;5096850;28;20044;-65
2023/04/26 11:02:11;;;;;;;0.35;0.35;;;;;;;13.44;38.24;99382.28;5096301;28;20040;-65
2023/04/26 11:04:51;;;;;;;0.40;0.40;;;;;;;13.63;37.72;99378.50;5096257;28;20082;-65
2023/04/26 11:07:36;;;;;;;0.45;0.45;;;;;;;13.61;35.54;99374.28;5078810;28;20048;-65
2023/04/26 11:10:09;;;;;;;4.50;1.08;;;;;;;13.69;35.56;99378.41;5096440;28;20109;-66
2023/04/26 11:12:42;;;;;;;1.35;1.23;;;;;;;13.67;34.91;99374.19;5096178;28;20044;-66
2023/04/26 11:15:13;;;;;;;0.52;0.52;;;;;;;13.70;35.35;99371.56;5095980;28;20048;-66
2023/04/26 11:17:42;;;;;;;1.15;1.05;;;;;;;14.24;35.60;99365.38;5096058;28;20048;-67
2023/04/26 11:20:16;;;;;;;0.33;0.33;;;;;;;14.67;35.96;99367.88;5096102;28;20044;-65
2023/04/26 11:22:46;;;;;;;0.47;0.47;;;;;;;14.57;35.57;99376.66;5095903;28;20758;-67
2023/04/26 11:25:15;;;;;;;0.50;0.50;;;;;;;14.42;36.00;99367.56;5095901;28;20101;-66
2023/04/26 11:27:44;;;;;;;0.40;0.40;;;;;;;14.37;37.03;99374.50;5096110;28;20036;-65
2023/04/26 11:30:13;;;;;;;0.50;0.50;;;;;;;14.52;37.28;99383.63;5095856;28;20490;-66
2023/04/26 11:32:42;;;;;;;0.75;0.75;;;;;;;14.58;37.64;99384.34;5095745;28;20044;-66
2023/04/26 11:35:12;;;;;;;2.53;1.45;;;;;;;14.82;37.88;99376.97;5095796;28;20386;-67
2023/04/26 11:37:41;;;;;;;0.55;0.55;;;;;;;15.22;37.90;99377.72;5095628;28;20486;-66
2023/04/26 11:40:12;;;;;;;0.40;0.40;;;;;;;15.72;37.41;99364.44;5095797;28;20098;-66
2023/04/26 11:42:41;;;;;;;0.82;0.82;;;;;;;15.93;36.31;99374.16;5094569;28;20490;-66
2023/04/26 11:45:11;;;;;;;0.50;0.50;;;;;;;16.00;36.06;99378.25;5095706;28;20040;-66
2023/04/26 11:47:41;;;;;;;0.65;0.65;;;;;;;15.86;35.81;99366.69;5095449;28;20164;-66
2023/04/26 11:50:10;;;;;;;0.60;0.60;;;;;;;15.65;35.21;99372.38;5095170;28;20048;-66
2023/04/26 11:52:39;;;;;;;0.50;0.50;;;;;;;15.47;35.19;99384.00;5095384;28;20506;-66
2023/04/26 11:55:11;;;;;;;4.18;1.20;;;;;;;15.50;34.64;99371.03;5095381;28;20097;-66